Dry Branch, Georgia
Current Conditions -  °F | °C
As of 1:53 AM on Monday 24 Nov 2014 (Local Time) from KMCN Reporting Station
Broken Clouds Broken Clouds  
Wind Chill: 63°   Ceiling: 1800
Heat Index: 63°   Visibility: 10mi
Dew Point: 62°   Wind: 9mph
Humidity: 97%   Direction: 210°SSW
Pressure: 29.8"   Gusts: NA
Location:  32.8°N, 83.5°W
Report Text: KMCN 240653Z AUTO 21008KT 10SM BKN018 17/17 A2980 RMK AO2 SLP088 T01720167 TSNO
Loading
Personal Weather Stations






























Interactive Weather Map New forecast layout! Learn more

10-Day Weather Forecast

Advertisements
Track Severe Weather on mobile